Time;durP1;ratioP1;P1;durP2;ratioP2;P2;SDS_P1;SDS_P2;PMS_P1;PMS_P2;Temp;Humidity;BMP_temperature;BMP_pressure;BME280_temperature;BME280_humidity;BME280_pressure;Samples;Min_cycle;Max_cycle;Signal;HPM_P1;HPM_P2
2021/09/24 00:01:43;;;;;;;13.60;5.80;;;;;;;;;;5053766;28;20439;-76
2021/09/24 00:04:11;;;;;;;8.40;5.73;;;;;;;;;;5057023;28;20775;-76
2021/09/24 00:06:37;;;;;;;11.50;4.70;;;;;;;;;;5056854;28;20439;-76
2021/09/24 00:09:03;;;;;;;9.90;5.30;;;;;;;;;;5056658;28;20502;-76
2021/09/24 00:11:29;;;;;;;10.07;4.97;;;;;;;;;;5056506;28;20517;-76
2021/09/24 00:13:55;;;;;;;11.10;5.77;;;;;;;;;;5056984;28;20420;-76
2021/09/24 00:16:21;;;;;;;9.57;5.67;;;;;;;;;;5056767;28;20481;-76
2021/09/24 00:18:47;;;;;;;11.23;5.40;;;;;;;;;;5056767;28;20455;-76
2021/09/24 00:21:13;;;;;;;11.30;4.80;;;;;;;;;;5056321;28;20756;-76
2021/09/24 00:23:39;;;;;;;11.60;5.70;;;;;;;;;;5056654;28;20443;-76
2021/09/24 00:26:05;;;;;;;10.63;5.20;;;;;;;;;;5056800;28;20408;-76
2021/09/24 00:28:31;;;;;;;8.83;4.87;;;;;;;;;;5056686;28;20412;-76
2021/09/24 00:30:57;;;;;;;8.53;6.17;;;;;;;;;;5056674;28;20494;-77
2021/09/24 00:33:27;;;;;;;13.73;6.10;;;;;;;;;;5056192;28;20436;-76
2021/09/24 00:35:53;;;;;;;10.03;5.87;;;;;;;;;;5056569;28;20840;-76
2021/09/24 00:38:19;;;;;;;10.10;6.20;;;;;;;;;;5056429;28;20458;-76
2021/09/24 00:40:45;;;;;;;8.17;5.80;;;;;;;;;;5056504;28;20387;-76
2021/09/24 00:43:11;;;;;;;14.67;5.97;;;;;;;;;;5055952;28;20489;-77
2021/09/24 00:45:37;;;;;;;13.40;6.00;;;;;;;;;;5038452;28;20446;-76
2021/09/24 00:48:03;;;;;;;14.80;6.27;;;;;;;;;;5038444;28;20379;-76
2021/09/24 00:50:29;;;;;;;7.83;5.87;;;;;;;;;;5056123;28;20412;-76
2021/09/24 00:52:56;;;;;;;12.73;6.40;;;;;;;;;;5055654;28;20984;-76
2021/09/24 00:55:22;;;;;;;8.73;5.90;;;;;;;;;;5055908;28;20502;-75
2021/09/24 00:57:48;;;;;;;7.73;6.93;;;;;;;;;;5055992;28;20824;-76
2021/09/24 01:00:15;;;;;;;12.90;7.07;;;;;;;;;;5055845;28;20460;-76
2021/09/24 01:02:41;;;;;;;14.60;6.20;;;;;;;;;;5055567;28;20798;-76
2021/09/24 01:05:09;;;;;;;15.10;7.00;;;;;;;;;;5055863;28;20756;-76
2021/09/24 01:07:38;;;;;;;8.77;6.13;;;;;;;;;;5055735;28;20404;-76
2021/09/24 01:10:05;;;;;;;16.10;6.57;;;;;;;;;;5055702;28;20420;-76
2021/09/24 01:12:31;;;;;;;11.27;6.23;;;;;;;;;;5055339;28;20511;-78
2021/09/24 01:15:01;;;;;;;12.73;6.20;;;;;;;;;;5055013;28;20989;-76
2021/09/24 01:17:27;;;;;;;12.83;7.00;;;;;;;;;;5055510;28;20495;-76
2021/09/24 01:19:53;;;;;;;8.17;6.33;;;;;;;;;;5055500;28;20525;-76
2021/09/24 01:22:19;;;;;;;12.00;6.40;;;;;;;;;;5055425;28;20489;-76
2021/09/24 01:24:45;;;;;;;13.60;6.73;;;;;;;;;;5055445;28;20776;-76
2021/09/24 01:27:11;;;;;;;10.00;6.53;;;;;;;;;;5055408;28;20443;-76
2021/09/24 01:29:37;;;;;;;9.67;6.10;;;;;;;;;;5055329;28;20419;-76
2021/09/24 01:32:03;;;;;;;11.07;6.83;;;;;;;;;;5054884;28;20466;-76
2021/09/24 01:34:29;;;;;;;10.10;6.07;;;;;;;;;;5055258;28;20491;-76
2021/09/24 01:36:55;;;;;;;14.47;6.23;;;;;;;;;;5055245;28;20811;-76
2021/09/24 01:39:21;;;;;;;9.23;5.83;;;;;;;;;;5055164;28;20467;-76
2021/09/24 01:41:50;;;;;;;11.40;6.30;;;;;;;;;;5054648;28;20511;-76
2021/09/24 01:44:16;;;;;;;11.27;6.57;;;;;;;;;;5055184;28;20412;-76
2021/09/24 01:46:43;;;;;;;12.80;6.60;;;;;;;;;;5055086;28;20906;-76
2021/09/24 01:49:10;;;;;;;9.03;5.90;;;;;;;;;;5055000;28;20414;-76
2021/09/24 01:51:38;;;;;;;15.90;7.27;;;;;;;;;;5054538;28;20451;-76
2021/09/24 01:54:04;;;;;;;11.40;6.07;;;;;;;;;;5054833;28;20403;-76
2021/09/24 01:56:30;;;;;;;10.93;7.87;;;;;;;;;;5055047;28;20423;-76
2021/09/24 01:58:56;;;;;;;9.80;7.20;;;;;;;;;;5054859;28;20463;-76
2021/09/24 02:01:22;;;;;;;14.07;7.10;;;;;;;;;;5054385;28;20405;-76
2021/09/24 02:03:48;;;;;;;10.37;7.33;;;;;;;;;;5054628;28;20396;-74
2021/09/24 02:06:14;;;;;;;12.00;6.50;;;;;;;;;;5054622;28;20387;-76
2021/09/24 02:08:40;;;;;;;9.57;7.43;;;;;;;;;;5054738;28;20411;-75
2021/09/24 02:11:10;;;;;;;10.30;7.77;;;;;;;;;;5054220;28;20426;-76
2021/09/24 02:13:37;;;;;;;13.93;7.93;;;;;;;;;;5054437;28;20916;-76
2021/09/24 02:16:03;;;;;;;11.50;6.80;;;;;;;;;;5054379;28;20424;-76
2021/09/24 02:18:29;;;;;;;11.10;7.13;;;;;;;;;;5036427;28;20847;-75
2021/09/24 02:20:55;;;;;;;12.30;7.30;;;;;;;;;;5054697;28;20474;-75
2021/09/24 02:23:21;;;;;;;8.70;6.77;;;;;;;;;;5054235;28;20436;-75
2021/09/24 02:25:47;;;;;;;9.13;7.30;;;;;;;;;;5053377;28;20415;-77
2021/09/24 02:28:13;;;;;;;12.00;8.03;;;;;;;;;;5054386;28;20386;-75
2021/09/24 02:30:40;;;;;;;7.93;6.97;;;;;;;;;;5054281;28;20412;-76
2021/09/24 02:33:06;;;;;;;18.33;7.00;;;;;;;;;;5053835;28;20432;-75
2021/09/24 02:35:32;;;;;;;16.23;7.70;;;;;;;;;;5054403;28;20799;-75
2021/09/24 02:37:58;;;;;;;11.17;8.10;;;;;;;;;;5054007;28;20462;-75
2021/09/24 02:40:25;;;;;;;16.87;7.70;;;;;;;;;;5054223;28;20463;-76
2021/09/24 02:42:51;;;;;;;12.90;8.60;;;;;;;;;;5053577;28;20926;-75
2021/09/24 02:45:17;;;;;;;16.60;9.00;;;;;;;;;;5053958;28;20767;-76
2021/09/24 02:47:43;;;;;;;14.43;9.30;;;;;;;;;;5053693;28;20408;-76
2021/09/24 02:50:09;;;;;;;14.40;10.10;;;;;;;;;;5053816;28;20430;-76
2021/09/24 02:52:35;;;;;;;13.47;10.27;;;;;;;;;;5053405;28;20448;-76
2021/09/24 02:55:02;;;;;;;17.63;11.73;;;;;;;;;;5053825;28;20415;-76
2021/09/24 02:57:27;;;;;;;18.63;12.30;;;;;;;;;;5053798;28;20444;-76
2021/09/24 02:59:53;;;;;;;18.13;11.83;;;;;;;;;;5035566;28;20544;-75
2021/09/24 03:02:20;;;;;;;18.57;13.00;;;;;;;;;;5053210;28;20439;-75
2021/09/24 03:04:46;;;;;;;16.20;12.83;;;;;;;;;;5053573;28;20750;-75
2021/09/24 03:07:12;;;;;;;17.03;13.30;;;;;;;;;;5053553;28;20887;-75
2021/09/24 03:09:38;;;;;;;21.27;14.77;;;;;;;;;;5053602;28;20404;-75
2021/09/24 03:12:04;;;;;;;16.33;12.60;;;;;;;;;;5053043;28;20435;-76
2021/09/24 03:14:31;;;;;;;18.80;14.80;;;;;;;;;;5018944;28;20871;-76
2021/09/24 03:16:57;;;;;;;25.93;16.20;;;;;;;;;;5053492;28;20379;-76
2021/09/24 03:19:23;;;;;;;30.70;17.00;;;;;;;;;;5053474;28;20498;-75
2021/09/24 03:21:50;;;;;;;26.77;17.60;;;;;;;;;;5053010;28;20403;-76
2021/09/24 03:24:16;;;;;;;25.67;18.03;;;;;;;;;;5053187;28;20457;-75
2021/09/24 03:26:42;;;;;;;30.70;18.97;;;;;;;;;;5053514;28;20383;-75
2021/09/24 03:29:09;;;;;;;34.40;19.80;;;;;;;;;;5053739;28;20394;-76
2021/09/24 03:31:38;;;;;;;27.33;17.90;;;;;;;;;;5052851;28;20431;-75
2021/09/24 03:34:05;;;;;;;23.83;16.70;;;;;;;;;;5035775;28;20416;-75
2021/09/24 03:36:31;;;;;;;26.50;18.83;;;;;;;;;;5052747;28;20911;-76
2021/09/24 03:38:57;;;;;;;24.70;17.70;;;;;;;;;;5053226;28;20430;-75
2021/09/24 03:41:23;;;;;;;25.00;17.67;;;;;;;;;;5052721;28;20420;-75
2021/09/24 03:43:49;;;;;;;21.77;18.20;;;;;;;;;;5053091;28;20911;-75
2021/09/24 03:46:15;;;;;;;23.93;19.10;;;;;;;;;;5035345;28;20390;-75
2021/09/24 03:48:41;;;;;;;21.70;19.10;;;;;;;;;;5035291;28;20783;-76
2021/09/24 03:51:07;;;;;;;33.90;19.10;;;;;;;;;;5052759;28;20412;-76
2021/09/24 03:53:33;;;;;;;23.67;17.97;;;;;;;;;;5052956;28;20438;-75
2021/09/24 03:55:59;;;;;;;26.43;17.37;;;;;;;;;;5052931;28;20418;-75
2021/09/24 03:58:25;;;;;;;25.63;18.87;;;;;;;;;;5052801;28;20972;-75
2021/09/24 04:00:51;;;;;;;25.80;19.20;;;;;;;;;;5052892;28;20507;-75
2021/09/24 04:03:18;;;;;;;30.60;18.80;;;;;;;;;;5052616;28;20795;-75
2021/09/24 04:05:44;;;;;;;26.40;17.90;;;;;;;;;;5054045;28;20404;-76
2021/09/24 04:08:13;;;;;;;25.13;18.30;;;;;;;;;;5052817;28;20408;-75
2021/09/24 04:10:39;;;;;;;24.67;17.60;;;;;;;;;;5052654;28;20387;-75
2021/09/24 04:13:05;;;;;;;22.20;17.50;;;;;;;;;;5052329;28;20451;-75
2021/09/24 04:15:31;;;;;;;21.13;17.60;;;;;;;;;;5052692;28;20416;-75
2021/09/24 04:17:57;;;;;;;27.00;17.43;;;;;;;;;;5052736;28;20509;-75
2021/09/24 04:20:23;;;;;;;22.20;17.67;;;;;;;;;;5052612;28;20517;-75
2021/09/24 04:22:49;;;;;;;21.13;18.00;;;;;;;;;;5052098;28;20431;-75
2021/09/24 04:25:15;;;;;;;32.63;19.50;;;;;;;;;;5052855;28;20408;-75
2021/09/24 04:27:41;;;;;;;27.60;18.53;;;;;;;;;;5035168;28;20416;-75
2021/09/24 04:30:07;;;;;;;25.20;19.30;;;;;;;;;;5034777;28;20424;-75
2021/09/24 04:32:34;;;;;;;25.00;18.30;;;;;;;;;;5052377;28;20443;-75
2021/09/24 04:35:01;;;;;;;26.50;18.37;;;;;;;;;;5052430;28;20412;-75
2021/09/24 04:37:27;;;;;;;23.33;18.00;;;;;;;;;;5052538;28;20418;-76
2021/09/24 04:39:53;;;;;;;24.57;19.60;;;;;;;;;;5052437;28;20501;-75
2021/09/24 04:42:19;;;;;;;21.73;18.13;;;;;;;;;;5052179;28;20430;-75
2021/09/24 04:44:45;;;;;;;27.03;19.50;;;;;;;;;;5052645;28;20936;-77
2021/09/24 04:47:11;;;;;;;24.83;18.50;;;;;;;;;;5052698;28;20495;-76
2021/09/24 04:49:37;;;;;;;20.63;17.40;;;;;;;;;;5055307;28;20762;-76
2021/09/24 04:52:03;;;;;;;22.63;18.30;;;;;;;;;;5038023;28;20508;-76
2021/09/24 04:54:29;;;;;;;26.37;19.43;;;;;;;;;;5055951;28;20440;-75
2021/09/24 04:56:55;;;;;;;24.10;19.40;;;;;;;;;;5056081;28;20408;-75
2021/09/24 04:59:21;;;;;;;26.43;18.93;;;;;;;;;;5055837;28;20830;-75
2021/09/24 05:01:47;;;;;;;27.50;19.27;;;;;;;;;;5055385;28;20454;-76
2021/09/24 05:04:13;;;;;;;26.63;19.17;;;;;;;;;;5055785;28;20408;-75
2021/09/24 05:06:39;;;;;;;25.60;19.47;;;;;;;;;;5055692;28;20767;-75
2021/09/24 05:09:05;;;;;;;22.83;18.10;;;;;;;;;;5055618;28;20499;-75
2021/09/24 05:11:31;;;;;;;35.30;18.73;;;;;;;;;;5055541;28;20406;-76
2021/09/24 05:13:58;;;;;;;26.10;19.50;;;;;;;;;;5055513;28;20950;-75
2021/09/24 05:16:24;;;;;;;28.77;20.87;;;;;;;;;;5055636;28;20379;-75
2021/09/24 05:18:50;;;;;;;25.30;20.03;;;;;;;;;;5055423;28;20460;-76
2021/09/24 05:21:16;;;;;;;25.90;19.67;;;;;;;;;;5055041;28;20408;-75
2021/09/24 05:23:42;;;;;;;27.83;19.80;;;;;;;;;;5055472;28;20383;-75
2021/09/24 05:26:08;;;;;;;26.40;19.70;;;;;;;;;;5055456;28;20423;-76
2021/09/24 05:28:34;;;;;;;32.27;19.53;;;;;;;;;;5055412;28;20412;-76
2021/09/24 05:31:00;;;;;;;26.57;18.87;;;;;;;;;;5055282;28;20892;-76
2021/09/24 05:33:26;;;;;;;26.60;20.57;;;;;;;;;;5037265;28;20468;-75
2021/09/24 05:35:52;;;;;;;24.27;19.87;;;;;;;;;;5055359;28;20412;-75
2021/09/24 05:38:18;;;;;;;31.77;20.60;;;;;;;;;;5054979;28;20491;-75
2021/09/24 05:40:44;;;;;;;25.90;19.20;;;;;;;;;;5055075;28;20980;-77
2021/09/24 05:43:10;;;;;;;24.27;18.63;;;;;;;;;;5054701;28;20443;-76
2021/09/24 05:45:36;;;;;;;27.90;20.40;;;;;;;;;;5055041;28;20408;-75
2021/09/24 05:48:02;;;;;;;29.90;19.93;;;;;;;;;;5055181;28;20916;-75
2021/09/24 05:50:29;;;;;;;27.00;20.47;;;;;;;;;;5055036;28;20804;-76
2021/09/24 05:52:55;;;;;;;21.77;19.20;;;;;;;;;;5036462;28;20475;-75
2021/09/24 05:55:23;;;;;;;25.80;20.20;;;;;;;;;;5054854;28;20760;-75
2021/09/24 05:57:49;;;;;;;26.20;20.17;;;;;;;;;;5054770;28;20420;-75
2021/09/24 06:00:16;;;;;;;26.23;20.17;;;;;;;;;;5054589;28;20525;-76
2021/09/24 06:02:43;;;;;;;33.17;21.30;;;;;;;;;;5054365;28;20423;-76
2021/09/24 06:05:09;;;;;;;27.43;19.97;;;;;;;;;;5054705;28;20394;-76
2021/09/24 06:07:35;;;;;;;29.70;20.97;;;;;;;;;;5054518;28;20416;-75
2021/09/24 06:10:01;;;;;;;28.30;20.30;;;;;;;;;;5054631;28;20912;-75
2021/09/24 06:12:27;;;;;;;31.70;22.03;;;;;;;;;;5036305;28;20911;-75
2021/09/24 06:14:56;;;;;;;26.70;19.87;;;;;;;;;;5054539;28;20420;-75
2021/09/24 06:17:22;;;;;;;31.00;22.33;;;;;;;;;;5054460;28;20819;-75
2021/09/24 06:19:48;;;;;;;29.30;20.40;;;;;;;;;;5054174;28;20550;-75
2021/09/24 06:22:15;;;;;;;31.97;20.80;;;;;;;;;;5054055;28;20901;-76
2021/09/24 06:24:44;;;;;;;26.73;20.10;;;;;;;;;;5054612;28;20416;-76
2021/09/24 06:27:14;;;;;;;29.43;21.23;;;;;;;;;;5054293;28;20404;-76
2021/09/24 06:29:40;;;;;;;28.60;19.77;;;;;;;;;;5054564;28;20382;-76
2021/09/24 06:32:07;;;;;;;30.73;22.40;;;;;;;;;;5053795;28;20936;-75
2021/09/24 06:34:33;;;;;;;31.17;21.03;;;;;;;;;;5054254;28;20412;-76
2021/09/24 06:36:59;;;;;;;37.27;26.07;;;;;;;;;;5054305;28;20462;-77
2021/09/24 06:39:25;;;;;;;38.97;26.10;;;;;;;;;;5054303;28;20459;-77
2021/09/24 06:41:51;;;;;;;36.77;25.90;;;;;;;;;;5035885;28;20474;-78
2021/09/24 06:44:17;;;;;;;37.70;25.60;;;;;;;;;;5053846;28;20814;-76
2021/09/24 06:46:42;;;;;;;34.00;22.67;;;;;;;;;;5053956;28;20412;-78
2021/09/24 06:49:08;;;;;;;30.53;20.40;;;;;;;;;;5053872;28;20420;-76
2021/09/24 06:51:34;;;;;;;26.13;19.63;;;;;;;;;;5053621;28;20443;-77
2021/09/24 06:54:00;;;;;;;25.10;16.40;;;;;;;;;;5053551;28;21002;-79
2021/09/24 06:56:26;;;;;;;21.70;17.50;;;;;;;;;;5053803;28;20512;-76
2021/09/24 06:58:52;;;;;;;23.17;17.57;;;;;;;;;;5053752;28;20550;-76
2021/09/24 07:01:18;;;;;;;22.77;18.03;;;;;;;;;;5053448;28;20412;-75
2021/09/24 07:03:44;;;;;;;27.10;18.70;;;;;;;;;;5053757;28;20873;-76
2021/09/24 07:06:10;;;;;;;23.10;17.50;;;;;;;;;;5053527;28;20493;-77
2021/09/24 07:08:36;;;;;;;23.73;16.50;;;;;;;;;;5053592;28;20412;-76
2021/09/24 07:11:02;;;;;;;26.00;15.90;;;;;;;;;;5052760;28;20413;-76
2021/09/24 07:13:28;;;;;;;20.73;14.20;;;;;;;;;;5053317;28;20428;-76
2021/09/24 07:15:54;;;;;;;18.87;13.43;;;;;;;;;;5053233;28;20379;-76
2021/09/24 07:18:20;;;;;;;16.23;12.90;;;;;;;;;;5053244;28;20412;-76
2021/09/24 07:20:46;;;;;;;15.80;11.00;;;;;;;;;;5053266;28;20466;-76
2021/09/24 07:23:12;;;;;;;16.60;10.60;;;;;;;;;;5052922;28;20427;-76
2021/09/24 07:25:38;;;;;;;16.43;10.03;;;;;;;;;;5053212;28;20401;-76
2021/09/24 07:28:04;;;;;;;15.07;9.07;;;;;;;;;;5053278;28;20865;-77
2021/09/24 07:30:30;;;;;;;12.33;9.73;;;;;;;;;;5053173;28;20447;-77
2021/09/24 07:32:56;;;;;;;14.90;9.30;;;;;;;;;;5052862;28;20411;-77
2021/09/24 07:35:22;;;;;;;11.40;9.70;;;;;;;;;;5053131;28;20504;-76
2021/09/24 07:37:48;;;;;;;10.83;9.50;;;;;;;;;;5053075;28;20567;-76
2021/09/24 07:40:14;;;;;;;13.77;10.67;;;;;;;;;;5035458;28;20576;-76
2021/09/24 07:42:40;;;;;;;16.80;10.67;;;;;;;;;;5052667;28;20427;-76
2021/09/24 07:45:06;;;;;;;16.73;9.20;;;;;;;;;;5053257;28;20405;-77
2021/09/24 07:47:32;;;;;;;15.77;10.97;;;;;;;;;;5053065;28;20378;-77
2021/09/24 07:49:59;;;;;;;17.70;11.27;;;;;;;;;;5053045;28;20557;-77
2021/09/24 07:52:25;;;;;;;15.57;10.00;;;;;;;;;;5052425;28;20428;-76
2021/09/24 07:54:51;;;;;;;14.10;11.60;;;;;;;;;;5052920;28;20402;-76
2021/09/24 07:57:17;;;;;;;15.33;11.30;;;;;;;;;;5053230;28;20779;-77
2021/09/24 07:59:43;;;;;;;17.93;10.70;;;;;;;;;;5052892;28;20547;-76
2021/09/24 08:02:10;;;;;;;15.87;11.73;;;;;;;;;;5018290;28;20399;-76
2021/09/24 08:04:36;;;;;;;19.10;10.83;;;;;;;;;;5038963;28;20394;-77
2021/09/24 08:07:03;;;;;;;14.13;11.60;;;;;;;;;;5036641;28;20955;-76
2021/09/24 08:09:29;;;;;;;13.07;11.43;;;;;;;;;;5052922;28;20424;-76
2021/09/24 08:11:55;;;;;;;13.10;10.97;;;;;;;;;;5052413;28;20891;-76
2021/09/24 08:14:20;;;;;;;18.37;11.83;;;;;;;;;;5052506;28;20511;-76
2021/09/24 08:16:46;;;;;;;14.90;11.10;;;;;;;;;;5051267;28;20507;-77
2021/09/24 08:19:12;;;;;;;19.10;10.73;;;;;;;;;;5052402;28;20455;-76
2021/09/24 08:21:38;;;;;;;15.00;12.30;;;;;;;;;;5053396;28;20428;-76
2021/09/24 08:24:05;;;;;;;16.17;12.80;;;;;;;;;;5054504;28;20403;-76
2021/09/24 08:26:31;;;;;;;16.40;12.20;;;;;;;;;;5056586;28;20900;-77
2021/09/24 08:28:57;;;;;;;17.33;12.87;;;;;;;;;;5056458;28;20498;-76
2021/09/24 08:31:23;;;;;;;14.23;12.30;;;;;;;;;;5056252;28;20462;-76
2021/09/24 08:33:49;;;;;;;17.90;13.33;;;;;;;;;;5056497;28;20420;-77
2021/09/24 08:36:15;;;;;;;19.03;13.30;;;;;;;;;;5056651;28;20919;-77
2021/09/24 08:38:42;;;;;;;23.33;16.77;;;;;;;;;;5056325;28;20528;-77
2021/09/24 08:41:08;;;;;;;19.77;13.67;;;;;;;;;;5056036;28;20748;-77
2021/09/24 08:43:34;;;;;;;17.50;13.93;;;;;;;;;;5056335;28;20415;-76
2021/09/24 08:46:00;;;;;;;22.03;17.00;;;;;;;;;;5056170;28;20465;-77
2021/09/24 08:48:28;;;;;;;19.97;14.10;;;;;;;;;;5056121;28;20431;-76
2021/09/24 08:50:55;;;;;;;15.10;11.93;;;;;;;;;;5055964;28;20940;-76
2021/09/24 08:53:22;;;;;;;14.73;11.97;;;;;;;;;;5055698;28;20525;-76
2021/09/24 08:55:48;;;;;;;16.20;12.77;;;;;;;;;;5056149;28;20415;-76
2021/09/24 08:58:15;;;;;;;22.57;14.13;;;;;;;;;;5056044;28;20412;-76
2021/09/24 09:00:43;;;;;;;15.83;13.13;;;;;;;;;;5038097;28;20454;-77
2021/09/24 09:03:10;;;;;;;21.07;14.00;;;;;;;;;;5055673;28;20497;-76
2021/09/24 09:05:52;;;;;;;17.20;12.97;;;;;;;;;;5055967;28;20866;-77
2021/09/24 09:08:23;;;;;;;15.33;12.23;;;;;;;;;;5055815;28;20394;-77
2021/09/24 09:10:56;;;;;;;16.30;10.40;;;;;;;;;;5055896;28;20438;-78
2021/09/24 09:13:22;;;;;;;13.50;10.53;;;;;;;;;;5055466;28;20769;-76
2021/09/24 09:15:52;;;;;;;14.70;9.60;;;;;;;;;;5055591;28;20392;-76
2021/09/24 09:18:19;;;;;;;11.10;8.77;;;;;;;;;;5037671;28;20420;-76
2021/09/24 09:20:46;;;;;;;11.33;9.40;;;;;;;;;;5055440;28;20430;-77
2021/09/24 09:23:12;;;;;;;13.10;8.20;;;;;;;;;;5037380;28;21013;-77
2021/09/24 09:25:45;;;;;;;11.10;8.57;;;;;;;;;;5037695;28;20428;-77
2021/09/24 09:28:17;;;;;;;15.10;8.60;;;;;;;;;;5055780;28;20763;-76
2021/09/24 09:30:45;;;;;;;8.63;7.03;;;;;;;;;;5055866;28;20416;-76
2021/09/24 09:33:15;;;;;;;12.43;8.17;;;;;;;;;;5055050;28;20435;-77
2021/09/24 09:35:43;;;;;;;12.53;7.10;;;;;;;;;;5054791;28;20418;-76
2021/09/24 09:38:25;;;;;;;10.20;6.80;;;;;;;;;;5037497;28;20415;-77
2021/09/24 09:41:13;;;;;;;10.47;6.93;;;;;;;;;;5037603;28;20438;-77
2021/09/24 09:43:47;;;;;;;13.00;7.07;;;;;;;;;;5055079;28;20774;-76
2021/09/24 09:46:15;;;;;;;9.93;5.93;;;;;;;;;;5055350;28;20478;-77
2021/09/24 09:48:41;;;;;;;11.27;6.40;;;;;;;;;;5037389;28;20412;-77
2021/09/24 09:51:08;;;;;;;7.77;5.80;;;;;;;;;;5054680;28;20419;-77
2021/09/24 09:53:34;;;;;;;8.10;5.90;;;;;;;;;;5036861;28;20439;-77
2021/09/24 09:56:06;;;;;;;8.57;6.00;;;;;;;;;;5054967;28;20439;-77
2021/09/24 09:58:41;;;;;;;7.87;5.27;;;;;;;;;;5032571;28;20796;-77
2021/09/24 10:01:12;;;;;;;8.30;4.67;;;;;;;;;;5032618;28;20417;-77
2021/09/24 10:03:46;;;;;;;12.70;6.10;;;;;;;;;;5032776;28;20413;-76
2021/09/24 10:06:20;;;;;;;13.77;6.43;;;;;;;;;;5032914;28;20400;-77
2021/09/24 10:08:46;;;;;;;9.60;5.63;;;;;;;;;;5032626;28;20416;-77
2021/09/24 10:11:14;;;;;;;6.87;5.30;;;;;;;;;;5032186;28;20401;-77
2021/09/24 10:13:50;;;;;;;5.97;4.33;;;;;;;;;;5032450;28;20444;-76
2021/09/24 10:16:16;;;;;;;8.33;4.97;;;;;;;;;;5032581;28;20401;-77
2021/09/24 10:18:42;;;;;;;6.07;5.13;;;;;;;;;;5032537;28;20415;-77
2021/09/24 10:21:09;;;;;;;8.53;4.60;;;;;;;;;;5015449;28;20417;-77
2021/09/24 10:23:35;;;;;;;4.63;4.00;;;;;;;;;;5032211;28;20428;-77
2021/09/24 10:26:06;;;;;;;5.83;5.27;;;;;;;;;;5032344;28;20479;-77
2021/09/24 10:28:33;;;;;;;6.03;4.27;;;;;;;;;;5034410;28;20437;-77
2021/09/24 10:31:00;;;;;;;5.83;4.60;;;;;;;;;;5054208;28;20411;-77
2021/09/24 10:33:44;;;;;;;6.30;5.10;;;;;;;;;;5053990;28;20432;-77
2021/09/24 10:36:11;;;;;;;10.80;5.50;;;;;;;;;;5054237;28;20406;-77
2021/09/24 10:38:44;;;;;;;7.10;5.63;;;;;;;;;;5036412;28;20499;-77
2021/09/24 10:41:14;;;;;;;10.93;5.60;;;;;;;;;;5054021;28;20474;-77
2021/09/24 10:43:47;;;;;;;6.20;4.83;;;;;;;;;;5054097;28;20436;-77
2021/09/24 10:46:25;;;;;;;7.20;5.10;;;;;;;;;;5053281;28;20436;-77
2021/09/24 10:49:09;;;;;;;8.00;4.73;;;;;;;;;;5054001;28;20391;-77
2021/09/24 10:51:39;;;;;;;9.47;4.90;;;;;;;;;;5053487;28;20527;-78
2021/09/24 10:54:15;;;;;;;12.20;6.10;;;;;;;;;;5053967;28;20435;-77
2021/09/24 10:56:41;;;;;;;9.13;5.53;;;;;;;;;;5053825;28;20400;-77
2021/09/24 10:59:34;;;;;;;12.73;5.60;;;;;;;;;;5053791;28;20464;-76
2021/09/24 11:02:01;;;;;;;7.37;4.70;;;;;;;;;;5049965;28;20439;-77
2021/09/24 11:04:43;;;;;;;7.17;5.13;;;;;;;;;;5053880;28;20462;-76
2021/09/24 11:07:12;;;;;;;7.20;4.40;;;;;;;;;;5054185;28;20764;-76
2021/09/24 11:09:51;;;;;;;9.87;4.20;;;;;;;;;;5053686;28;20750;-76
2021/09/24 11:12:17;;;;;;;7.37;4.70;;;;;;;;;;5053235;28;20438;-76
2021/09/24 11:14:43;;;;;;;6.10;4.80;;;;;;;;;;5053540;28;20395;-76
2021/09/24 11:17:11;;;;;;;8.23;6.10;;;;;;;;;;5053502;28;20867;-75
2021/09/24 11:19:42;;;;;;;5.90;4.63;;;;;;;;;;5053340;28;20441;-77
2021/09/24 11:22:12;;;;;;;8.60;4.97;;;;;;;;;;5052971;28;20419;-76
2021/09/24 11:24:40;;;;;;;9.13;6.07;;;;;;;;;;5053365;28;20487;-77
2021/09/24 11:27:11;;;;;;;8.73;5.20;;;;;;;;;;5053330;28;20404;-76
2021/09/24 11:30:06;;;;;;;9.30;4.30;;;;;;;;;;5053348;28;20795;-77
2021/09/24 11:32:34;;;;;;;10.57;4.77;;;;;;;;;;5052840;28;20436;-80
2021/09/24 11:35:00;;;;;;;5.87;4.20;;;;;;;;;;5053323;28;20391;-78
2021/09/24 11:37:30;;;;;;;5.37;4.00;;;;;;;;;;5053340;28;20792;-78
2021/09/24 11:40:13;;;;;;;9.13;4.40;;;;;;;;;;5053175;28;20514;-78
2021/09/24 11:42:40;;;;;;;6.23;3.50;;;;;;;;;;5052850;28;20410;-78
2021/09/24 11:45:08;;;;;;;9.43;4.67;;;;;;;;;;5053145;28;20425;-78
2021/09/24 11:47:40;;;;;;;7.63;3.57;;;;;;;;;;5053094;28;20802;-78
2021/09/24 11:50:06;;;;;;;5.40;3.40;;;;;;;;;;5053333;28;20829;-78
2021/09/24 11:52:35;;;;;;;3.90;2.63;;;;;;;;;;5052469;28;20943;-78
2021/09/24 11:55:22;;;;;;;4.33;3.10;;;;;;;;;;5053295;28;20846;-79
2021/09/24 11:58:03;;;;;;;9.43;3.73;;;;;;;;;;5054497;28;20437;-79
2021/09/24 12:00:32;;;;;;;6.03;4.70;;;;;;;;;;5057169;28;21006;-77
2021/09/24 12:03:08;;;;;;;6.30;3.90;;;;;;;;;;5056686;28;20447;-77
2021/09/24 12:05:34;;;;;;;5.13;3.77;;;;;;;;;;5056929;28;20779;-78
2021/09/24 12:08:00;;;;;;;5.33;3.30;;;;;;;;;;5056905;28;20729;-77
2021/09/24 12:10:30;;;;;;;4.97;3.00;;;;;;;;;;5056755;28;20490;-78
2021/09/24 12:13:08;;;;;;;5.03;2.97;;;;;;;;;;5056437;28;20804;-78
2021/09/24 12:15:50;;;;;;;9.13;3.10;;;;;;;;;;5056818;28;20499;-78
2021/09/24 12:18:16;;;;;;;2.63;2.40;;;;;;;;;;5038855;28;20786;-78
2021/09/24 12:20:43;;;;;;;4.57;2.93;;;;;;;;;;5056539;28;20474;-77
2021/09/24 12:23:09;;;;;;;6.70;3.40;;;;;;;;;;5056291;28;20427;-78
2021/09/24 12:25:35;;;;;;;3.43;2.63;;;;;;;;;;5056619;28;20759;-76
2021/09/24 12:28:07;;;;;;;5.57;2.70;;;;;;;;;;5056493;28;20415;-76
2021/09/24 12:30:38;;;;;;;4.00;2.50;;;;;;;;;;5056371;28;20897;-76
2021/09/24 12:33:14;;;;;;;8.63;3.23;;;;;;;;;;5055906;28;20409;-78
2021/09/24 12:35:40;;;;;;;4.90;3.90;;;;;;;;;;5056376;28;20422;-76
2021/09/24 12:38:06;;;;;;;4.67;2.77;;;;;;;;;;5056522;28;20394;-76
2021/09/24 12:40:32;;;;;;;4.97;2.57;;;;;;;;;;5056128;28;20463;-77
2021/09/24 12:43:00;;;;;;;6.50;2.67;;;;;;;;;;5055760;28;20446;-77
2021/09/24 12:45:31;;;;;;;5.43;2.70;;;;;;;;;;5038820;28;20493;-76
2021/09/24 12:48:07;;;;;;;4.63;2.83;;;;;;;;;;5056361;28;20795;-76
2021/09/24 12:50:33;;;;;;;6.60;2.80;;;;;;;;;;5056176;28;20914;-76
2021/09/24 12:52:59;;;;;;;4.67;2.60;;;;;;;;;;5055628;28;20455;-76
2021/09/24 12:55:25;;;;;;;3.87;2.50;;;;;;;;;;5056096;28;20393;-76
2021/09/24 12:57:54;;;;;;;4.90;2.70;;;;;;;;;;5037970;28;20461;-76
2021/09/24 13:00:22;;;;;;;4.30;2.20;;;;;;;;;;5055875;28;20477;-77
2021/09/24 13:02:48;;;;;;;3.57;2.50;;;;;;;;;;5037472;28;20799;-76
2021/09/24 13:05:19;;;;;;;6.73;3.40;;;;;;;;;;5055655;28;20466;-76
2021/09/24 13:07:45;;;;;;;3.87;2.53;;;;;;;;;;5056016;28;20842;-77
2021/09/24 13:10:14;;;;;;;4.23;2.90;;;;;;;;;;5054906;28;20443;-77
2021/09/24 13:12:40;;;;;;;3.23;2.93;;;;;;;;;;5055142;28;20406;-76
2021/09/24 13:15:08;;;;;;;3.80;2.80;;;;;;;;;;5055569;28;20447;-76
2021/09/24 13:17:34;;;;;;;10.40;3.30;;;;;;;;;;5055681;28;20751;-76
2021/09/24 13:20:00;;;;;;;3.83;3.53;;;;;;;;;;5055512;28;20451;-76
2021/09/24 13:22:26;;;;;;;8.07;3.33;;;;;;;;;;5055363;28;20399;-76
2021/09/24 13:24:52;;;;;;;6.57;3.70;;;;;;;;;;5037333;28;20910;-77
2021/09/24 13:27:18;;;;;;;7.93;3.73;;;;;;;;;;5055383;28;20416;-77
2021/09/24 13:29:47;;;;;;;8.00;3.77;;;;;;;;;;5055454;28;20444;-76
2021/09/24 13:32:14;;;;;;;7.93;4.23;;;;;;;;;;5055105;28;20409;-76
2021/09/24 13:34:41;;;;;;;7.43;4.20;;;;;;;;;;5055243;28;20416;-76
2021/09/24 13:37:08;;;;;;;5.80;3.40;;;;;;;;;;5055261;28;20933;-76
2021/09/24 13:39:34;;;;;;;14.70;4.40;;;;;;;;;;5055441;28;20463;-76
2021/09/24 13:42:00;;;;;;;8.13;4.47;;;;;;;;;;5037308;28;20748;-76
2021/09/24 13:44:26;;;;;;;12.47;4.47;;;;;;;;;;5037342;28;20794;-77
2021/09/24 13:46:53;;;;;;;4.30;3.90;;;;;;;;;;5055062;28;20405;-77
2021/09/24 13:49:19;;;;;;;4.07;3.67;;;;;;;;;;5049606;28;20440;-77
2021/09/24 13:51:45;;;;;;;7.13;4.00;;;;;;;;;;5038151;28;20806;-77
2021/09/24 13:54:11;;;;;;;6.23;3.40;;;;;;;;;;5055299;28;21122;-76
2021/09/24 13:56:37;;;;;;;7.50;3.77;;;;;;;;;;5072834;28;20419;-77
2021/09/24 13:59:03;;;;;;;6.73;3.90;;;;;;;;;;5055141;28;20463;-76
2021/09/24 14:01:30;;;;;;;4.97;3.20;;;;;;;;;;5071255;28;20561;-76
2021/09/24 14:03:59;;;;;;;6.17;3.93;;;;;;;;;;5046413;28;20420;-76
2021/09/24 14:06:25;;;;;;;7.70;3.53;;;;;;;;;;5053150;28;20398;-76
2021/09/24 14:08:51;;;;;;;8.13;3.70;;;;;;;;;;5052883;28;20398;-76
2021/09/24 14:11:18;;;;;;;6.93;3.57;;;;;;;;;;5052101;28;20406;-76
2021/09/24 14:13:44;;;;;;;5.30;3.20;;;;;;;;;;5055352;28;20513;-76
2021/09/24 14:16:10;;;;;;;7.90;3.10;;;;;;;;;;5052937;28;20882;-76
2021/09/24 14:18:36;;;;;;;4.47;2.43;;;;;;;;;;5052040;28;20431;-77
2021/09/24 14:21:03;;;;;;;6.90;2.70;;;;;;;;;;5052606;28;20434;-76
2021/09/24 14:23:29;;;;;;;4.70;2.43;;;;;;;;;;5052279;28;20440;-76
2021/09/24 14:25:55;;;;;;;5.90;2.60;;;;;;;;;;5034222;28;20434;-76
2021/09/24 14:28:21;;;;;;;3.00;2.20;;;;;;;;;;5052563;28;20406;-76
2021/09/24 14:30:47;;;;;;;3.00;2.67;;;;;;;;;;5052534;28;20411;-75